createdAt,value
2023-01-11T00:01:56.269Z,-0.43
2023-01-11T00:04:28.234Z,-0.38
2023-01-11T00:06:54.739Z,-0.45
2023-01-11T00:09:21.269Z,-0.43
2023-01-11T00:11:47.831Z,-0.49
2023-01-11T00:14:15.929Z,-0.46
2023-01-11T00:16:42.419Z,-0.34
2023-01-11T00:19:08.839Z,-0.44
2023-01-11T00:21:35.256Z,-0.43
2023-01-11T00:24:01.711Z,-0.55
2023-01-11T00:26:28.338Z,-0.63
2023-01-11T00:28:54.886Z,-0.51
2023-01-11T00:31:21.403Z,-0.43
2023-01-11T00:33:47.933Z,-0.39
2023-01-11T00:36:14.399Z,-0.46
2023-01-11T00:38:43.729Z,-0.50
2023-01-11T00:41:30.297Z,-0.41
2023-01-11T00:44:14.948Z,-0.26
2023-01-11T00:46:59.828Z,-0.10
2023-01-11T00:49:26.316Z,-0.31
2023-01-11T00:51:52.812Z,-0.39
2023-01-11T00:54:20.139Z,-0.30
2023-01-11T00:56:49.434Z,-0.46
2023-01-11T00:59:16.011Z,-0.24
2023-01-11T01:01:42.620Z,-0.22
2023-01-11T01:04:09.141Z,-0.33
2023-01-11T01:06:35.647Z,-0.21
2023-01-11T01:09:04.463Z,0.01
2023-01-11T01:11:30.927Z,-0.22
2023-01-11T01:14:16.086Z,-0.13
2023-01-11T01:16:42.840Z,-0.05
2023-01-11T01:19:09.406Z,-0.13
2023-01-11T01:21:37.350Z,-0.05
2023-01-11T01:24:03.923Z,0.01
2023-01-11T01:26:30.438Z,-0.07
2023-01-11T01:28:56.907Z,0.09
2023-01-11T01:31:23.425Z,0.24
2023-01-11T01:33:49.977Z,0.31
2023-01-11T01:36:16.446Z,0.35
2023-01-11T01:38:42.951Z,0.29
2023-01-11T01:41:12.190Z,0.45
2023-01-11T01:43:51.969Z,0.46
2023-01-11T01:46:19.914Z,0.42
2023-01-11T01:48:58.049Z,0.40
2023-01-11T01:51:30.586Z,0.50
2023-01-11T01:54:00.763Z,0.34
2023-01-11T01:56:38.895Z,0.49
2023-01-11T01:59:13.953Z,0.54
2023-01-11T02:01:47.469Z,0.59
2023-01-11T02:04:24.721Z,0.51
2023-01-11T02:06:57.627Z,0.59
2023-01-11T02:09:36.265Z,0.64
2023-01-11T02:12:06.422Z,0.77
2023-01-11T02:14:34.687Z,0.66
2023-01-11T02:17:03.485Z,0.79
2023-01-11T02:19:51.865Z,0.70
2023-01-11T02:22:46.367Z,0.89
2023-01-11T02:25:26.323Z,0.87
2023-01-11T02:28:07.608Z,0.92
2023-01-11T02:30:53.647Z,0.87
2023-01-11T02:33:38.520Z,0.85
2023-01-11T02:36:25.005Z,1.02
2023-01-11T02:39:14.413Z,0.98
2023-01-11T02:42:09.709Z,0.96
2023-01-11T02:45:00.720Z,1.10
2023-01-11T02:47:44.962Z,1.12
2023-01-11T02:50:26.207Z,1.06
2023-01-11T02:53:18.522Z,1.14
2023-01-11T02:55:51.853Z,1.06
2023-01-11T02:58:21.772Z,1.13
2023-01-11T03:00:49.475Z,1.13
2023-01-11T03:03:24.912Z,1.13
2023-01-11T03:06:06.539Z,1.26
2023-01-11T03:09:03.821Z,1.30
2023-01-11T03:12:12.197Z,1.22
2023-01-11T03:14:50.890Z,1.33
2023-01-11T03:17:32.570Z,1.29
2023-01-11T03:20:13.291Z,1.34
2023-01-11T03:22:45.811Z,1.30
2023-01-11T03:25:57.175Z,1.40
2023-01-11T03:28:30.795Z,1.38
2023-01-11T03:31:12.611Z,1.23
2023-01-11T03:33:52.435Z,1.46
2023-01-11T03:36:26.531Z,1.33
2023-01-11T03:38:58.476Z,1.37
2023-01-11T03:41:29.327Z,1.43
2023-01-11T03:43:59.962Z,1.46
2023-01-11T03:46:34.701Z,1.39
2023-01-11T03:49:06.635Z,1.37
2023-01-11T03:51:38.890Z,1.49
2023-01-11T03:54:09.347Z,1.48
2023-01-11T03:56:53.107Z,1.58
2023-01-11T03:59:19.893Z,1.53
2023-01-11T04:01:46.348Z,1.68
2023-01-11T04:04:12.907Z,1.66
2023-01-11T04:06:39.972Z,1.66
2023-01-11T04:09:06.759Z,1.84
2023-01-11T04:11:33.468Z,1.71
2023-01-11T04:14:01.664Z,1.79
2023-01-11T04:16:28.406Z,1.83
2023-01-11T04:18:55.217Z,1.68
2023-01-11T04:21:21.729Z,1.94
2023-01-11T04:23:48.644Z,1.79
2023-01-11T04:26:17.385Z,1.86
2023-01-11T04:28:44.611Z,1.74
2023-01-11T04:31:13.661Z,1.81
2023-01-11T04:33:40.503Z,1.87
2023-01-11T04:36:08.682Z,1.92
2023-01-11T04:38:37.368Z,1.89
2023-01-11T04:41:23.854Z,1.97
2023-01-11T04:43:50.540Z,2.04
2023-01-11T04:46:17.000Z,2.07
2023-01-11T04:48:43.518Z,2.07
2023-01-11T04:51:10.151Z,2.04
2023-01-11T04:53:36.763Z,1.98
2023-01-11T04:56:04.668Z,2.09
2023-01-11T04:58:32.373Z,2.09
2023-01-11T05:00:58.875Z,2.14
2023-01-11T05:03:27.743Z,2.18
2023-01-11T05:05:58.502Z,2.29
2023-01-11T05:08:26.643Z,2.33
2023-01-11T05:10:57.242Z,2.32
2023-01-11T05:13:43.042Z,2.37
2023-01-11T05:16:19.962Z,2.36
2023-01-11T05:18:49.812Z,2.44
2023-01-11T05:21:19.059Z,2.39
2023-01-11T05:23:46.351Z,2.38
2023-01-11T05:26:17.686Z,2.40
2023-01-11T05:28:45.158Z,2.45
2023-01-11T05:31:15.105Z,2.59
2023-01-11T05:33:41.993Z,2.62
2023-01-11T05:36:13.010Z,2.73
2023-01-11T05:38:39.600Z,2.65
2023-01-11T05:41:10.656Z,2.62
2023-01-11T05:43:57.535Z,2.70
2023-01-11T05:46:24.968Z,2.72
2023-01-11T05:48:52.052Z,2.74
2023-01-11T05:51:18.537Z,2.69
2023-01-11T05:53:45.369Z,2.81
2023-01-11T05:56:12.013Z,2.92
2023-01-11T05:58:38.494Z,2.84
2023-01-11T06:01:06.298Z,2.81
2023-01-11T06:03:33.052Z,2.86
2023-01-11T06:06:02.357Z,2.77
2023-01-11T06:08:28.827Z,2.80
2023-01-11T06:10:56.623Z,2.82
2023-01-11T06:13:27.745Z,2.81
2023-01-11T06:16:03.196Z,2.90
2023-01-11T06:18:32.530Z,2.90
2023-01-11T06:20:59.131Z,2.88
2023-01-11T06:23:28.560Z,2.87
2023-01-11T06:25:55.150Z,2.84
2023-01-11T06:28:22.153Z,2.78
2023-01-11T06:30:53.309Z,2.75
2023-01-11T06:33:20.563Z,2.82
2023-01-11T06:35:47.080Z,2.84
2023-01-11T06:38:15.589Z,2.85
2023-01-11T06:40:42.739Z,2.76
2023-01-11T06:43:10.469Z,2.84
2023-01-11T06:45:39.882Z,2.75
2023-01-11T06:48:06.567Z,2.86
2023-01-11T06:50:33.020Z,2.88
2023-01-11T06:53:02.847Z,2.86
2023-01-11T06:55:30.673Z,2.98
2023-01-11T06:57:57.415Z,2.98
2023-01-11T07:00:24.476Z,2.96
2023-01-11T07:02:51.037Z,3.01
2023-01-11T07:05:19.355Z,2.88
2023-01-11T07:07:46.241Z,2.91
2023-01-11T07:10:16.437Z,2.90
2023-01-11T07:12:43.275Z,2.89
2023-01-11T07:15:10.599Z,2.97
2023-01-11T07:17:37.817Z,2.96
2023-01-11T07:20:05.623Z,3.01
2023-01-11T07:22:36.418Z,3.03
2023-01-11T07:25:05.064Z,3.08
2023-01-11T07:27:31.861Z,3.23
2023-01-11T07:30:00.824Z,3.16
2023-01-11T07:32:28.336Z,3.20
2023-01-11T07:34:55.676Z,3.26
2023-01-11T07:37:28.033Z,3.20
2023-01-11T07:39:55.656Z,3.22
2023-01-11T07:42:41.074Z,3.25
2023-01-11T07:45:08.214Z,3.17
2023-01-11T07:47:34.737Z,3.19
2023-01-11T07:50:01.259Z,3.20
2023-01-11T07:52:27.763Z,3.25
2023-01-11T07:54:54.253Z,3.25
2023-01-11T07:57:20.745Z,3.30
2023-01-11T07:59:47.219Z,3.41
2023-01-11T08:02:13.673Z,3.43
2023-01-11T08:04:40.104Z,3.61
2023-01-11T08:07:06.544Z,3.45
2023-01-11T08:09:33.066Z,3.51
2023-01-11T08:12:18.341Z,3.51
2023-01-11T08:14:44.884Z,3.54
2023-01-11T08:17:14.061Z,3.63
2023-01-11T08:19:40.733Z,3.75
2023-01-11T08:22:07.645Z,3.88
2023-01-11T08:24:37.088Z,3.77
2023-01-11T08:27:04.585Z,3.83
2023-01-11T08:29:31.872Z,4.02
2023-01-11T08:31:59.490Z,4.10
2023-01-11T08:34:27.634Z,4.17
2023-01-11T08:36:56.548Z,4.17
2023-01-11T08:39:24.413Z,4.14
2023-01-11T08:41:50.864Z,4.27
2023-01-11T08:44:28.966Z,4.27
2023-01-11T08:46:59.676Z,4.22
2023-01-11T08:49:30.325Z,4.43
2023-01-11T08:51:56.960Z,4.42
2023-01-11T08:54:23.643Z,4.45
2023-01-11T08:56:50.090Z,4.48
2023-01-11T08:59:16.708Z,4.50
2023-01-11T09:01:43.170Z,4.49
2023-01-11T09:04:23.758Z,4.78
2023-01-11T09:06:52.539Z,4.73
2023-01-11T09:09:19.087Z,4.83
2023-01-11T09:11:54.536Z,4.82
2023-01-11T09:14:24.855Z,4.99
2023-01-11T09:16:52.564Z,5.37
2023-01-11T09:19:21.338Z,5.31
2023-01-11T09:21:48.307Z,5.54
2023-01-11T09:24:14.964Z,5.52
2023-01-11T09:26:43.381Z,5.46
2023-01-11T09:29:12.632Z,5.49
2023-01-11T09:31:39.259Z,5.63
2023-01-11T09:34:07.265Z,5.58
2023-01-11T09:36:36.106Z,5.54
2023-01-11T09:39:07.592Z,5.65
2023-01-11T09:41:38.524Z,5.81
2023-01-11T09:44:26.719Z,5.84
2023-01-11T09:47:00.641Z,6.06
2023-01-11T09:49:38.325Z,6.14
2023-01-11T09:52:29.218Z,5.99
2023-01-11T09:55:01.165Z,5.90
2023-01-11T09:57:41.802Z,5.86
2023-01-11T10:00:22.166Z,5.88
2023-01-11T10:03:17.608Z,5.90
2023-01-11T10:06:09.170Z,5.97
2023-01-11T10:18:22.584Z,6.10
2023-01-11T10:18:38.532Z,6.11
2023-01-11T10:20:43.851Z,6.26
2023-01-11T10:23:24.879Z,6.20
2023-01-11T10:25:56.524Z,6.25
2023-01-11T10:28:39.647Z,6.42
2023-01-11T10:31:29.869Z,6.45
2023-01-11T10:34:24.720Z,6.48
2023-01-11T10:37:19.058Z,6.49
2023-01-11T10:40:18.587Z,6.50
2023-01-11T10:42:54.451Z,6.48
2023-01-11T10:45:32.743Z,6.60
2023-01-11T10:48:05.713Z,6.67
2023-01-11T10:50:57.154Z,6.77
2023-01-11T10:53:32.379Z,6.74
2023-01-11T10:56:19.004Z,6.96
2023-01-11T10:59:00.617Z,7.16
2023-01-11T11:01:34.502Z,7.29
2023-01-11T11:04:07.022Z,7.49
2023-01-11T11:06:38.834Z,7.46
2023-01-11T11:09:27.205Z,7.51
2023-01-11T11:12:00.237Z,7.63
2023-01-11T11:14:41.447Z,7.67
2023-01-11T11:17:18.271Z,7.75
2023-01-11T11:19:47.046Z,7.75
2023-01-11T11:22:13.721Z,7.87
2023-01-11T11:24:45.588Z,7.77
2023-01-11T11:27:21.422Z,7.58
2023-01-11T11:29:56.945Z,7.57
2023-01-11T11:32:31.309Z,7.69
2023-01-11T11:34:58.179Z,7.65
2023-01-11T11:37:44.569Z,7.57
2023-01-11T11:40:30.350Z,7.51
2023-01-11T11:43:20.733Z,7.54
2023-01-11T11:45:58.833Z,7.48
2023-01-11T11:48:27.902Z,7.54
2023-01-11T11:50:57.050Z,7.44
2023-01-11T11:53:35.473Z,7.62
2023-01-11T11:56:14.845Z,7.50
2023-01-11T11:58:42.635Z,7.61
2023-01-11T12:01:40.160Z,7.71
2023-01-11T12:04:18.082Z,7.80
2023-01-11T12:07:05.086Z,7.83
2023-01-11T12:09:34.927Z,7.84
2023-01-11T12:12:04.920Z,7.88
2023-01-11T12:14:35.241Z,7.75
2023-01-11T12:17:23.139Z,7.76
2023-01-11T12:19:50.116Z,7.69
2023-01-11T12:22:20.117Z,7.71
2023-01-11T12:24:48.640Z,7.72
2023-01-11T12:27:46.402Z,7.79
2023-01-11T12:30:25.465Z,7.78
2023-01-11T12:32:51.902Z,7.73
2023-01-11T12:35:32.440Z,7.71
2023-01-11T12:38:13.937Z,7.68
2023-01-11T12:41:11.527Z,7.86
2023-01-11T12:43:38.719Z,7.76
2023-01-11T12:46:20.215Z,7.89
2023-01-11T12:49:10.673Z,7.89
2023-01-11T12:51:59.060Z,8.07
2023-01-11T12:54:40.719Z,8.18
2023-01-11T12:57:19.431Z,8.25
2023-01-11T13:00:17.132Z,8.26
2023-01-11T13:03:04.213Z,8.37
2023-01-11T13:05:34.859Z,8.45
2023-01-11T13:08:12.451Z,8.41
2023-01-11T13:11:00.778Z,8.51
2023-01-11T13:13:47.072Z,8.49
2023-01-11T13:16:20.236Z,8.39
2023-01-11T13:19:07.526Z,8.35
2023-01-11T13:21:44.355Z,8.31
2023-01-11T13:24:16.782Z,8.22
2023-01-11T13:26:49.060Z,8.14
2023-01-11T13:29:31.511Z,8.10
2023-01-11T13:32:02.549Z,8.02
2023-01-11T13:34:48.085Z,8.00
2023-01-11T13:37:43.025Z,8.03
2023-01-11T13:40:22.596Z,8.01
2023-01-11T13:42:54.183Z,8.05
2023-01-11T13:45:32.069Z,8.07
2023-01-11T13:48:05.965Z,7.98
2023-01-11T13:50:44.305Z,7.97
2023-01-11T13:53:10.740Z,7.92
2023-01-11T13:55:49.945Z,7.98
2023-01-11T13:58:28.936Z,7.86
2023-01-11T14:01:14.343Z,7.83
2023-01-11T14:03:53.365Z,7.90
2023-01-11T14:06:42.102Z,7.89
2023-01-11T14:09:27.279Z,7.91
2023-01-11T14:12:09.158Z,7.97
2023-01-11T14:14:50.711Z,7.90
2023-01-11T14:17:23.189Z,7.93
2023-01-11T14:20:01.032Z,7.98
2023-01-11T14:22:58.404Z,7.99
2023-01-11T14:25:31.190Z,7.92
2023-01-11T14:28:02.737Z,7.94
2023-01-11T14:30:59.030Z,7.92
2023-01-11T14:34:03.131Z,7.84
2023-01-11T14:36:38.669Z,7.79
2023-01-11T14:39:29.985Z,7.76
2023-01-11T14:42:22.035Z,7.80
2023-01-11T14:45:05.133Z,7.71
2023-01-11T14:47:59.173Z,7.74
2023-01-11T14:50:44.853Z,7.84
2023-01-11T14:53:18.740Z,7.76
2023-01-11T14:55:49.360Z,7.68
2023-01-11T14:58:18.273Z,7.67
2023-01-11T15:00:44.796Z,7.71
2023-01-11T15:03:11.231Z,7.63
2023-01-11T15:05:44.971Z,7.67
2023-01-11T15:08:14.423Z,7.60
2023-01-11T15:10:55.558Z,7.59
2023-01-11T15:13:33.895Z,7.55
2023-01-11T15:16:38.272Z,7.53
2023-01-11T15:19:08.762Z,7.52
2023-01-11T15:21:47.950Z,7.47
2023-01-11T15:24:28.551Z,7.44
2023-01-11T15:26:57.156Z,7.32
2023-01-11T15:29:28.845Z,7.33
2023-01-11T15:32:01.095Z,7.32
2023-01-11T15:34:43.699Z,7.28
2023-01-11T15:37:31.267Z,7.22
2023-01-11T15:40:02.214Z,7.23
2023-01-11T15:42:59.509Z,7.32
2023-01-11T15:46:06.264Z,7.27
2023-01-11T15:48:35.396Z,7.28
2023-01-11T15:51:34.199Z,7.35
2023-01-11T15:54:42.730Z,7.35
2023-01-11T15:57:44.041Z,7.30
2023-01-11T16:00:32.602Z,7.23
2023-01-11T16:03:36.530Z,7.15
2023-01-11T16:06:24.793Z,7.24
2023-01-11T16:09:30.671Z,7.17
2023-01-11T16:12:36.080Z,7.16
2023-01-11T16:15:35.451Z,7.05
2023-01-11T16:18:18.104Z,7.05
2023-01-11T16:20:55.649Z,7.14
2023-01-11T16:23:22.454Z,7.06
2023-01-11T16:25:57.873Z,7.11
2023-01-11T16:28:25.485Z,7.05
2023-01-11T16:30:57.720Z,7.08
2023-01-11T16:33:27.269Z,7.04
2023-01-11T16:36:13.647Z,6.96
2023-01-11T16:39:01.880Z,6.97
2023-01-11T16:41:45.737Z,6.92
2023-01-11T16:44:41.649Z,6.91
2023-01-11T16:47:19.371Z,6.90
2023-01-11T16:49:49.214Z,6.96
2023-01-11T16:52:38.928Z,6.92
2023-01-11T16:55:19.190Z,6.86
2023-01-11T16:57:51.864Z,6.90
2023-01-11T17:00:25.145Z,6.88
2023-01-11T17:03:15.129Z,6.94
2023-01-11T17:05:52.142Z,7.03
2023-01-11T17:08:36.818Z,6.95
2023-01-11T17:11:16.521Z,6.96
2023-01-11T17:14:01.232Z,7.05
2023-01-11T17:16:30.366Z,7.07
2023-01-11T17:19:01.496Z,7.05
2023-01-11T17:21:30.649Z,7.14
2023-01-11T17:24:03.592Z,7.29
2023-01-11T17:26:49.390Z,7.56
2023-01-11T17:29:28.459Z,7.67
2023-01-11T17:31:57.027Z,7.68
2023-01-11T17:34:32.657Z,7.86
2023-01-11T17:37:00.371Z,7.88
2023-01-11T17:39:33.339Z,7.78
2023-01-11T17:42:24.521Z,7.80
2023-01-11T17:45:11.927Z,7.84
2023-01-11T17:47:49.164Z,7.90
2023-01-11T17:50:26.732Z,7.92
2023-01-11T17:53:22.679Z,7.92
2023-01-11T17:55:58.124Z,7.90
2023-01-11T17:58:27.474Z,7.97
2023-01-11T18:01:09.245Z,8.26
2023-01-11T18:03:38.866Z,8.33
2023-01-11T18:06:21.323Z,8.32
2023-01-11T18:08:55.868Z,8.31
2023-01-11T18:11:28.557Z,8.34
2023-01-11T18:13:59.024Z,8.31
2023-01-11T18:16:25.614Z,8.34
2023-01-11T18:18:54.446Z,8.39
2023-01-11T18:21:27.039Z,8.34
2023-01-11T18:24:21.468Z,8.25
2023-01-11T18:26:48.301Z,8.29
2023-01-11T18:29:43.373Z,8.28
2023-01-11T18:32:11.782Z,8.37
2023-01-11T18:34:42.878Z,8.42
2023-01-11T18:37:13.219Z,8.41
2023-01-11T18:39:40.516Z,8.38
2023-01-11T18:42:09.925Z,8.51
2023-01-11T18:44:41.731Z,8.66
2023-01-11T18:47:16.133Z,8.60
2023-01-11T18:49:42.782Z,8.64
2023-01-11T18:52:10.716Z,8.57
2023-01-11T18:54:37.531Z,8.54
2023-01-11T18:57:04.386Z,8.53
2023-01-11T18:59:31.333Z,8.38
2023-01-11T19:02:16.310Z,8.33
2023-01-11T19:04:43.423Z,8.32
2023-01-11T19:07:10.729Z,8.32
2023-01-11T19:09:39.384Z,8.35
2023-01-11T19:12:06.987Z,8.41
2023-01-11T19:14:35.735Z,8.45
2023-01-11T19:17:04.587Z,8.39
2023-01-11T19:19:31.292Z,8.43
2023-01-11T19:21:58.039Z,8.43
2023-01-11T19:24:24.614Z,8.40
2023-01-11T19:26:51.234Z,8.43
2023-01-11T19:29:19.030Z,8.51
2023-01-11T19:31:46.824Z,8.49
2023-01-11T19:34:17.205Z,8.41
2023-01-11T19:36:44.353Z,8.46
2023-01-11T19:39:11.221Z,8.36
2023-01-11T19:41:56.305Z,8.52
2023-01-11T19:44:31.625Z,8.52
2023-01-11T19:47:10.329Z,8.36
2023-01-11T19:49:40.525Z,8.38
2023-01-11T19:52:12.677Z,8.53
2023-01-11T19:54:43.292Z,8.51
2023-01-11T19:57:14.124Z,8.55
2023-01-11T19:59:41.454Z,8.53
2023-01-11T20:02:09.834Z,8.52
2023-01-11T20:04:39.167Z,8.49
2023-01-11T20:07:06.979Z,8.51
2023-01-11T20:09:33.674Z,8.49
2023-01-11T20:12:02.591Z,8.66
2023-01-11T20:14:29.147Z,8.61
2023-01-11T20:16:55.866Z,8.44
2023-01-11T20:19:24.771Z,8.60
2023-01-11T20:21:51.444Z,8.45
2023-01-11T20:24:18.045Z,8.52
2023-01-11T20:26:46.544Z,8.53
2023-01-11T20:29:13.212Z,8.55
2023-01-11T20:31:42.258Z,8.54
2023-01-11T20:34:12.070Z,8.65
2023-01-11T20:36:38.846Z,8.56
2023-01-11T20:39:07.105Z,8.54
2023-01-11T20:41:49.690Z,8.54
2023-01-11T20:44:25.011Z,8.38
2023-01-11T20:46:55.687Z,8.39
2023-01-11T20:49:24.289Z,8.48
2023-01-11T20:51:51.244Z,8.41
2023-01-11T20:54:18.382Z,8.40
2023-01-11T20:56:48.007Z,8.49
2023-01-11T20:59:19.161Z,8.48
2023-01-11T21:01:51.778Z,8.49
2023-01-11T21:04:19.294Z,8.40
2023-01-11T21:06:50.465Z,8.48
2023-01-11T21:09:24.375Z,8.46
2023-01-11T21:11:54.010Z,8.41
2023-01-11T21:14:22.114Z,8.36
2023-01-11T21:16:48.814Z,8.40
2023-01-11T21:19:16.038Z,8.40
2023-01-11T21:21:43.103Z,8.43
2023-01-11T21:24:12.852Z,8.38
2023-01-11T21:26:41.961Z,8.39
2023-01-11T21:29:08.885Z,8.31
2023-01-11T21:31:37.109Z,8.34
2023-01-11T21:34:04.081Z,8.40
2023-01-11T21:36:34.277Z,8.33
2023-01-11T21:39:03.440Z,8.22
2023-01-11T21:41:50.821Z,8.14
2023-01-11T21:44:18.871Z,8.25
2023-01-11T21:46:48.215Z,8.18
2023-01-11T21:49:14.979Z,8.15
2023-01-11T21:51:42.845Z,8.22
2023-01-11T21:54:12.957Z,8.21
2023-01-11T21:56:41.710Z,8.04
2023-01-11T21:59:08.614Z,8.05
2023-01-11T22:01:35.510Z,7.97
2023-01-11T22:04:10.233Z,8.04
2023-01-11T22:06:38.655Z,7.96
2023-01-11T22:09:05.798Z,7.87
2023-01-11T22:11:35.841Z,7.86
2023-01-11T22:14:04.236Z,7.90
2023-01-11T22:16:33.940Z,7.99
2023-01-11T22:19:03.561Z,7.90
2023-01-11T22:21:30.133Z,7.78
2023-01-11T22:23:59.801Z,7.97
2023-01-11T22:26:27.662Z,8.03
2023-01-11T22:29:33.515Z,7.98
2023-01-11T22:32:01.465Z,7.94
2023-01-11T22:34:28.306Z,7.77
2023-01-11T22:36:54.989Z,7.67
2023-01-11T22:39:21.877Z,7.59
2023-01-11T22:41:52.764Z,7.65
2023-01-11T22:44:19.540Z,7.77
2023-01-11T22:46:46.322Z,7.87
2023-01-11T22:49:15.856Z,7.76
2023-01-11T22:51:43.271Z,7.74
2023-01-11T22:54:10.938Z,7.79
2023-01-11T22:56:40.091Z,7.73
2023-01-11T22:59:06.708Z,7.81
2023-01-11T23:01:44.594Z,7.77
2023-01-11T23:04:13.707Z,7.73
2023-01-11T23:06:41.361Z,7.78
2023-01-11T23:09:11.119Z,7.91
2023-01-11T23:11:58.441Z,7.87
2023-01-11T23:14:30.958Z,8.01
2023-01-11T23:17:07.106Z,8.09
2023-01-11T23:19:35.833Z,8.06
2023-01-11T23:22:06.260Z,8.11
2023-01-11T23:24:33.363Z,8.10
2023-01-11T23:27:00.011Z,8.02
2023-01-11T23:29:26.894Z,8.10
2023-01-11T23:31:53.724Z,8.23
2023-01-11T23:34:20.289Z,8.01
2023-01-11T23:36:46.883Z,8.03
2023-01-11T23:39:16.778Z,7.93
2023-01-11T23:42:02.045Z,8.07
2023-01-11T23:44:28.964Z,7.92
2023-01-11T23:47:14.432Z,7.94
2023-01-11T23:49:42.999Z,7.91
2023-01-11T23:52:10.073Z,7.93
2023-01-11T23:54:36.631Z,8.06
2023-01-11T23:57:06.523Z,7.92
2023-01-11T23:59:33.222Z,7.96
